Time;durP1;ratioP1;P1;durP2;ratioP2;P2;SDS_P1;SDS_P2;PMS_P1;PMS_P2;Temp;Humidity;BMP_temperature;BMP_pressure;BME280_temperature;BME280_humidity;BME280_pressure;Samples;Min_cycle;Max_cycle;Signal;HPM_P1;HPM_P2
2023/09/07 00:01:00;;;;;;;12.45;7.90;;;20.50;99.90;;;;;;4985214;28;20244;-69
2023/09/07 00:03:26;;;;;;;11.73;6.07;;;20.50;99.90;;;;;;4988847;28;20681;-69
2023/09/07 00:05:52;;;;;;;8.15;5.30;;;20.50;99.90;;;;;;4991917;28;20185;-67
2023/09/07 00:08:18;;;;;;;6.75;5.20;;;20.50;99.90;;;;;;5018494;28;20676;-69
2023/09/07 00:10:44;;;;;;;7.70;5.47;;;20.50;99.90;;;;;;4990491;28;20221;-69
2023/09/07 00:13:10;;;;;;;9.07;5.55;;;20.50;99.90;;;;;;4989665;28;20197;-69
2023/09/07 00:15:37;;;;;;;9.85;5.57;;;20.50;99.90;;;;;;4998822;28;20201;-70
2023/09/07 00:18:04;;;;;;;11.68;5.32;;;20.50;99.90;;;;;;4992830;28;20189;-69
2023/09/07 00:20:30;;;;;;;8.63;5.40;;;20.50;99.90;;;;;;4992048;28;20355;-67
2023/09/07 00:22:56;;;;;;;7.35;5.25;;;20.50;99.90;;;;;;4990913;28;20193;-69
2023/09/07 00:25:22;;;;;;;13.00;5.72;;;20.50;99.90;;;;;;4990908;28;20205;-70
2023/09/07 00:27:48;;;;;;;10.82;5.85;;;20.50;99.90;;;;;;4994297;28;20186;-68
2023/09/07 00:30:14;;;;;;;11.32;5.25;;;20.50;99.90;;;;;;4993074;28;20275;-68
2023/09/07 00:32:40;;;;;;;7.65;5.72;;;20.50;99.90;;;;;;4986751;28;20194;-70
2023/09/07 00:35:06;;;;;;;8.25;6.10;;;20.40;99.90;;;;;;4985912;28;20192;-70
2023/09/07 00:37:33;;;;;;;9.60;5.47;;;20.50;99.90;;;;;;4992409;28;20204;-69
2023/09/07 00:39:59;;;;;;;9.32;5.80;;;20.40;99.90;;;;;;4993402;28;20287;-70
2023/09/07 00:42:25;;;;;;;10.95;6.32;;;20.40;99.90;;;;;;4993208;28;20185;-69
2023/09/07 00:44:51;;;;;;;9.25;6.15;;;20.40;99.90;;;;;;4991551;28;20290;-71
2023/09/07 00:47:18;;;;;;;14.40;6.60;;;20.30;99.90;;;;;;4987944;28;20209;-70
2023/09/07 00:49:45;;;;;;;12.57;6.30;;;20.30;99.90;;;;;;4993615;28;20232;-68
2023/09/07 00:52:11;;;;;;;9.82;6.10;;;20.30;99.90;;;;;;4987972;28;20193;-71
2023/09/07 00:54:41;;;;;;;11.10;6.60;;;20.20;99.90;;;;;;4991014;28;20261;-69
2023/09/07 00:57:08;;;;;;;17.38;7.20;;;20.20;99.90;;;;;;4986488;28;20181;-68
2023/09/07 00:59:34;;;;;;;9.35;5.82;;;20.20;99.90;;;;;;4988360;28;20235;-70
2023/09/07 01:02:00;;;;;;;9.70;6.57;;;20.20;99.90;;;;;;5016080;28;20645;-71
2023/09/07 01:04:26;;;;;;;10.73;6.60;;;20.10;99.90;;;;;;4990850;28;20181;-71
2023/09/07 01:07:46;;;;;;;13.82;7.60;;;20.10;99.90;;;;;;5018514;28;20189;-71
2023/09/07 01:10:13;;;;;;;8.35;6.70;;;20.00;99.90;;;;;;4971448;28;20224;-68
2023/09/07 01:12:42;;;;;;;9.93;6.50;;;20.00;99.90;;;;;;5002668;28;20209;-70
2023/09/07 01:15:09;;;;;;;9.90;6.55;;;20.00;99.90;;;;;;4988172;28;20188;-69
2023/09/07 01:17:36;;;;;;;9.77;6.40;;;19.90;99.90;;;;;;4989626;28;20181;-68
2023/09/07 01:20:11;;;;;;;10.48;6.57;;;19.90;99.90;;;;;;5021281;28;20592;-71
2023/09/07 01:22:38;;;;;;;9.60;6.97;;;19.90;99.90;;;;;;4989695;28;20193;-70
2023/09/07 01:25:06;;;;;;;8.98;6.45;;;19.80;99.90;;;;;;4989146;28;20185;-70
2023/09/07 01:27:34;;;;;;;9.85;6.63;;;19.80;99.90;;;;;;5001254;28;20213;-70
2023/09/07 01:30:00;;;;;;;10.63;7.30;;;19.70;99.90;;;;;;5015412;28;20197;-69
2023/09/07 01:32:26;;;;;;;14.07;6.97;;;19.70;99.90;;;;;;4991526;28;20233;-70
2023/09/07 01:34:56;;;;;;;8.45;6.80;;;19.70;99.90;;;;;;4994825;28;20669;-70
2023/09/07 01:37:23;;;;;;;8.32;7.05;;;19.70;99.90;;;;;;4988368;28;20737;-68
2023/09/07 01:39:50;;;;;;;10.57;7.45;;;19.70;99.90;;;;;;4990244;28;20244;-72
2023/09/07 01:42:16;;;;;;;9.30;7.55;;;19.70;99.90;;;;;;4985994;28;20315;-69
2023/09/07 01:44:43;;;;;;;17.20;7.38;;;19.60;99.90;;;;;;4987421;28;20352;-70
2023/09/07 01:47:09;;;;;;;9.95;7.28;;;19.60;99.90;;;;;;5021322;28;20193;-68
2023/09/07 01:49:35;;;;;;;11.90;7.00;;;19.60;99.90;;;;;;4992602;28;20196;-73
2023/09/07 01:52:02;;;;;;;16.35;7.72;;;19.60;99.90;;;;;;5004226;28;20196;-70
2023/09/07 01:54:28;;;;;;;15.63;7.68;;;19.50;99.90;;;;;;5006260;28;20240;-70
2023/09/07 01:56:54;;;;;;;12.85;7.20;;;19.50;99.90;;;;;;4991409;28;20192;-68
2023/09/07 01:59:20;;;;;;;10.65;7.50;;;19.50;99.90;;;;;;4991423;28;20192;-74
2023/09/07 02:01:46;;;;;;;13.98;6.88;;;19.40;99.90;;;;;;4987539;28;20876;-68
2023/09/07 02:04:12;;;;;;;10.57;7.53;;;19.40;99.90;;;;;;4991389;28;20205;-68
2023/09/07 02:06:39;;;;;;;12.18;7.65;;;19.40;99.90;;;;;;5016674;28;20209;-69
2023/09/07 02:09:05;;;;;;;11.75;8.57;;;19.40;99.90;;;;;;5005875;28;20623;-68
2023/09/07 02:11:31;;;;;;;13.43;7.50;;;19.40;99.90;;;;;;5004339;28;20273;-68
2023/09/07 02:13:57;;;;;;;15.07;8.30;;;19.30;99.90;;;;;;4989785;28;20195;-70
2023/09/07 02:16:23;;;;;;;11.02;8.60;;;19.30;99.90;;;;;;5018990;28;20181;-69
2023/09/07 02:18:50;;;;;;;13.45;8.23;;;19.30;99.90;;;;;;5002782;28;20300;-68
2023/09/07 02:21:16;;;;;;;13.18;8.38;;;19.30;99.90;;;;;;4986738;28;20326;-71
2023/09/07 02:23:43;;;;;;;12.88;7.95;;;19.20;99.90;;;;;;4991350;28;20193;-69
2023/09/07 02:26:09;;;;;;;10.38;8.55;;;19.20;99.90;;;;;;5016780;28;20717;-69
2023/09/07 02:28:34;;;;;;;14.18;8.65;;;19.20;99.90;;;;;;4991560;28;20204;-70
2023/09/07 02:31:05;;;;;;;11.63;7.70;;;19.10;99.90;;;;;;4986315;28;20209;-69
2023/09/07 02:33:31;;;;;;;9.75;7.90;;;19.10;99.90;;;;;;4991338;28;20237;-69
2023/09/07 02:35:58;;;;;;;10.70;8.07;;;19.00;99.90;;;;;;4987553;28;20185;-69
2023/09/07 02:38:25;;;;;;;11.57;8.10;;;19.00;99.90;;;;;;5021990;28;20181;-68
2023/09/07 02:40:51;;;;;;;12.27;8.77;;;19.00;99.90;;;;;;4985445;28;20583;-71
2023/09/07 02:43:17;;;;;;;13.00;8.73;;;18.90;99.90;;;;;;5007049;28;20224;-70
2023/09/07 02:45:43;;;;;;;13.48;8.88;;;18.90;99.90;;;;;;5020973;28;20217;-74
2023/09/07 02:48:09;;;;;;;13.18;9.35;;;18.90;99.90;;;;;;5020420;28;20215;-71
2023/09/07 02:50:37;;;;;;;15.13;9.10;;;18.90;99.90;;;;;;4989233;28;20193;-70
2023/09/07 02:53:04;;;;;;;12.48;9.13;;;18.80;99.90;;;;;;5007036;28;20209;-69
2023/09/07 02:55:31;;;;;;;11.73;9.38;;;18.80;99.90;;;;;;4986667;28;20221;-70
2023/09/07 02:57:57;;;;;;;13.82;9.30;;;18.80;99.90;;;;;;4985684;28;20267;-71
2023/09/07 03:00:23;;;;;;;14.82;9.23;;;18.80;99.90;;;;;;5019268;28;20218;-72
2023/09/07 03:02:49;;;;;;;19.42;10.88;;;18.80;99.90;;;;;;4991556;28;20193;-68
2023/09/07 03:05:16;;;;;;;16.08;9.95;;;18.70;99.90;;;;;;4988746;28;20217;-68
2023/09/07 03:07:46;;;;;;;13.52;9.40;;;18.70;99.90;;;;;;4983040;28;20205;-68
2023/09/07 03:10:13;;;;;;;14.07;9.90;;;18.70;99.90;;;;;;5020418;28;20240;-69
2023/09/07 03:12:40;;;;;;;12.60;9.80;;;18.70;99.90;;;;;;4976465;28;20736;-70
2023/09/07 03:15:07;;;;;;;17.27;10.57;;;18.60;99.90;;;;;;4999622;28;20193;-70
2023/09/07 03:17:33;;;;;;;14.48;9.95;;;18.60;99.90;;;;;;4989687;28;20213;-70
2023/09/07 03:20:05;;;;;;;19.63;10.65;;;18.60;99.90;;;;;;4989902;28;20220;-68
2023/09/07 03:22:31;;;;;;;17.63;10.23;;;18.60;99.90;;;;;;4984866;28;20667;-68
2023/09/07 03:24:57;;;;;;;18.60;10.82;;;18.50;99.90;;;;;;5022590;28;20213;-69
2023/09/07 03:27:23;;;;;;;14.25;11.00;;;18.50;99.90;;;;;;5016670;28;20181;-69
2023/09/07 03:29:51;;;;;;;19.10;11.10;;;18.50;99.90;;;;;;4987034;28;20177;-70
2023/09/07 03:32:18;;;;;;;18.35;11.25;;;18.50;99.90;;;;;;4983555;28;20197;-71
2023/09/07 03:34:44;;;;;;;20.55;10.48;;;18.40;99.90;;;;;;4987404;28;20189;-67
2023/09/07 03:37:11;;;;;;;13.02;10.35;;;18.40;99.90;;;;;;4986107;28;20572;-67
2023/09/07 03:39:37;;;;;;;13.75;10.38;;;18.40;99.90;;;;;;4970564;28;20533;-67
2023/09/07 03:42:04;;;;;;;14.82;10.75;;;18.40;99.90;;;;;;4973317;28;20242;-71
2023/09/07 03:44:30;;;;;;;20.98;11.32;;;18.30;99.90;;;;;;5006128;28;20224;-67
2023/09/07 03:46:56;;;;;;;18.10;11.00;;;18.30;99.90;;;;;;5004497;28;20223;-70
2023/09/07 03:49:22;;;;;;;14.07;11.18;;;18.30;99.90;;;;;;4993033;28;21116;-67
2023/09/07 03:51:48;;;;;;;14.30;11.30;;;18.30;99.90;;;;;;4989082;28;20189;-68
2023/09/07 03:54:14;;;;;;;19.58;11.02;;;18.30;99.90;;;;;;4994260;28;20190;-67
2023/09/07 03:56:40;;;;;;;16.77;10.52;;;18.30;99.90;;;;;;4988167;28;20197;-68
2023/09/07 03:59:08;;;;;;;14.90;11.48;;;18.20;99.90;;;;;;4990854;28;20658;-69
2023/09/07 04:01:34;;;;;;;18.40;11.00;;;18.20;99.90;;;;;;4989783;28;20716;-67
2023/09/07 04:04:00;;;;;;;14.77;11.25;;;18.20;99.90;;;;;;5025672;28;20189;-69
2023/09/07 04:06:26;;;;;;;17.92;11.38;;;18.20;99.90;;;;;;4989043;28;20186;-69
2023/09/07 04:08:52;;;;;;;15.95;11.70;;;18.20;99.90;;;;;;4990259;28;20219;-69
2023/09/07 04:11:18;;;;;;;15.75;12.00;;;18.20;99.90;;;;;;4988047;28;20592;-69
2023/09/07 04:13:44;;;;;;;15.50;11.65;;;18.10;99.90;;;;;;5023203;28;20181;-67
2023/09/07 04:16:10;;;;;;;15.63;11.25;;;18.10;99.90;;;;;;4990175;28;20194;-66
2023/09/07 04:18:36;;;;;;;17.38;11.85;;;18.10;99.90;;;;;;4993485;28;20208;-63
2023/09/07 04:21:09;;;;;;;15.88;11.38;;;18.10;99.90;;;;;;4987580;28;20252;-68
2023/09/07 04:23:35;;;;;;;21.42;11.70;;;18.10;99.90;;;;;;4989306;28;20668;-67
2023/09/07 04:26:09;;;;;;;14.75;12.35;;;18.10;99.90;;;;;;4997014;28;20182;-69
2023/09/07 04:28:36;;;;;;;14.82;11.93;;;18.10;99.90;;;;;;5026286;28;20184;-68
2023/09/07 04:31:03;;;;;;;13.23;11.38;;;18.00;99.90;;;;;;4988680;28;20186;-70
2023/09/07 04:33:33;;;;;;;25.33;12.02;;;18.00;99.90;;;;;;5018441;28;20193;-70
2023/09/07 04:36:13;;;;;;;17.02;12.27;;;18.00;99.90;;;;;;4987223;28;20237;-67
2023/09/07 04:38:41;;;;;;;17.48;11.90;;;18.00;99.90;;;;;;5020805;28;20659;-69
2023/09/07 04:41:09;;;;;;;17.27;12.15;;;18.00;99.90;;;;;;4987370;28;20221;-69
2023/09/07 04:43:35;;;;;;;14.55;11.60;;;18.00;99.90;;;;;;4992952;28;20197;-67
2023/09/07 04:46:02;;;;;;;15.07;12.15;;;17.90;99.90;;;;;;4988241;28;20712;-67
2023/09/07 04:48:29;;;;;;;25.83;11.40;;;17.90;99.90;;;;;;5005770;28;20174;-68
2023/09/07 04:51:05;;;;;;;17.73;11.52;;;17.90;99.90;;;;;;4987711;28;20237;-66
2023/09/07 04:53:34;;;;;;;23.42;11.82;;;17.90;99.90;;;;;;4992927;28;20177;-67
2023/09/07 04:56:02;;;;;;;19.33;11.93;;;17.90;99.90;;;;;;5007651;28;20193;-73
2023/09/07 04:58:29;;;;;;;17.52;11.95;;;17.80;99.90;;;;;;4999110;28;20196;-68
2023/09/07 05:01:04;;;;;;;22.20;12.27;;;17.80;99.90;;;;;;5022162;28;20217;-69
2023/09/07 05:03:31;;;;;;;14.23;11.75;;;17.80;99.90;;;;;;4988193;28;20185;-72
2023/09/07 05:05:57;;;;;;;18.20;12.57;;;17.80;99.90;;;;;;5016646;28;20185;-68
2023/09/07 05:08:24;;;;;;;16.98;11.75;;;17.80;99.90;;;;;;4986959;28;20189;-68
2023/09/07 05:11:02;;;;;;;16.55;12.20;;;17.80;99.90;;;;;;4991143;28;20661;-69
2023/09/07 05:13:29;;;;;;;15.65;11.80;;;17.80;99.90;;;;;;5020967;28;20181;-69
2023/09/07 05:15:58;;;;;;;19.48;12.85;;;17.80;99.90;;;;;;4989188;28;20181;-69
2023/09/07 05:18:24;;;;;;;14.63;12.05;;;17.80;99.90;;;;;;4979805;28;20189;-70
2023/09/07 05:20:51;;;;;;;14.60;11.82;;;17.80;99.90;;;;;;4985623;28;20213;-73
2023/09/07 05:23:22;;;;;;;16.95;12.18;;;17.80;99.90;;;;;;4988487;28;20203;-68
2023/09/07 05:25:53;;;;;;;15.57;12.13;;;17.80;99.90;;;;;;4987284;28;20245;-69
2023/09/07 05:28:22;;;;;;;19.83;11.93;;;17.90;99.90;;;;;;5007864;28;20193;-68
2023/09/07 05:30:50;;;;;;;17.52;11.60;;;17.90;99.90;;;;;;4987673;28;20201;-73
2023/09/07 05:33:18;;;;;;;19.17;11.90;;;17.90;99.90;;;;;;4987938;28;20201;-68
2023/09/07 05:35:45;;;;;;;18.95;11.63;;;17.90;99.90;;;;;;4989728;28;20200;-67
2023/09/07 05:38:12;;;;;;;28.95;12.27;;;17.90;99.90;;;;;;5020270;28;20213;-68
2023/09/07 05:40:41;;;;;;;22.58;12.23;;;17.90;99.90;;;;;;5001609;28;20734;-71
2023/09/07 05:43:07;;;;;;;19.90;12.05;;;18.00;99.90;;;;;;5007893;28;20209;-67
2023/09/07 05:45:40;;;;;;;20.42;12.20;;;18.00;99.90;;;;;;4997586;28;20549;-69
2023/09/07 05:48:07;;;;;;;17.58;12.18;;;18.00;99.90;;;;;;4988073;28;20713;-68
2023/09/07 05:50:37;;;;;;;18.27;11.80;;;18.10;99.90;;;;;;4989799;28;20244;-68
2023/09/07 05:53:04;;;;;;;17.90;11.85;;;18.10;99.90;;;;;;4991144;28;20689;-68
2023/09/07 05:55:30;;;;;;;17.08;11.60;;;18.20;99.90;;;;;;4989853;28;20725;-69
2023/09/07 05:57:57;;;;;;;18.02;10.93;;;18.20;99.90;;;;;;4987859;28;20209;-69
2023/09/07 06:00:25;;;;;;;14.23;10.90;;;18.20;99.90;;;;;;4999872;28;20206;-66
2023/09/07 06:02:52;;;;;;;15.13;11.48;;;18.30;99.90;;;;;;5022224;28;20189;-69
2023/09/07 06:05:18;;;;;;;18.77;12.13;;;18.30;99.90;;;;;;5020983;28;20193;-69
2023/09/07 06:07:45;;;;;;;16.77;10.98;;;18.40;99.90;;;;;;5020670;28;20197;-69
2023/09/07 06:10:12;;;;;;;16.63;10.95;;;18.40;99.90;;;;;;4972088;28;20225;-67
2023/09/07 06:12:39;;;;;;;17.00;11.13;;;18.50;99.90;;;;;;4987849;28;20181;-67
2023/09/07 06:15:05;;;;;;;16.40;11.35;;;18.50;99.90;;;;;;4985116;28;22158;-69
2023/09/07 06:17:32;;;;;;;18.17;10.82;;;18.60;99.90;;;;;;4989914;28;20216;-68
2023/09/07 06:19:58;;;;;;;18.70;11.60;;;18.70;99.90;;;;;;4990321;28;20213;-69
2023/09/07 06:22:25;;;;;;;15.40;10.73;;;18.70;99.90;;;;;;4984555;28;20284;-68
2023/09/07 06:24:52;;;;;;;18.05;12.10;;;18.80;99.90;;;;;;4987784;28;20245;-69
2023/09/07 06:27:19;;;;;;;14.35;11.13;;;18.90;99.90;;;;;;5007098;28;20181;-68
2023/09/07 06:29:45;;;;;;;22.30;11.32;;;18.90;99.90;;;;;;4990780;28;20197;-68
2023/09/07 06:32:12;;;;;;;16.95;10.63;;;19.00;99.90;;;;;;4984089;28;20181;-70
2023/09/07 06:34:37;;;;;;;14.65;11.88;;;19.10;99.90;;;;;;4986096;28;20255;-67
2023/09/07 06:37:04;;;;;;;16.20;10.82;;;19.10;99.90;;;;;;4984221;28;20704;-67
2023/09/07 06:39:31;;;;;;;23.00;11.70;;;19.20;99.90;;;;;;5006893;28;20194;-68
2023/09/07 06:41:57;;;;;;;14.35;10.90;;;19.30;99.90;;;;;;4986247;28;20189;-68
2023/09/07 06:44:27;;;;;;;17.95;10.23;;;19.40;99.90;;;;;;5000680;28;20177;-67
2023/09/07 06:46:53;;;;;;;18.85;11.80;;;19.50;99.90;;;;;;4990648;28;20181;-66
2023/09/07 06:49:20;;;;;;;15.07;10.38;;;19.60;99.90;;;;;;5023585;28;20197;-68
2023/09/07 06:51:46;;;;;;;18.75;10.65;;;19.60;99.90;;;;;;4987549;28;20264;-66
2023/09/07 06:54:13;;;;;;;14.82;11.75;;;19.70;99.90;;;;;;4987885;28;20185;-70
2023/09/07 06:56:40;;;;;;;16.05;11.15;;;19.80;99.90;;;;;;5020261;28;20197;-67
2023/09/07 06:59:07;;;;;;;14.70;11.00;;;19.80;99.90;;;;;;4974164;28;20177;-68
2023/09/07 07:01:33;;;;;;;14.80;10.75;;;19.90;99.90;;;;;;4986572;28;20263;-67
2023/09/07 07:03:59;;;;;;;20.05;10.68;;;19.90;99.90;;;;;;4989971;28;20193;-68
2023/09/07 07:06:26;;;;;;;15.27;10.30;;;20.10;99.90;;;;;;4969715;28;20671;-70
2023/09/07 07:08:52;;;;;;;16.98;10.05;;;20.10;99.90;;;;;;4994521;28;20275;-68
2023/09/07 07:11:19;;;;;;;14.52;10.30;;;20.20;99.90;;;;;;4995033;28;20317;-68
2023/09/07 07:13:45;;;;;;;25.52;11.45;;;20.30;99.90;;;;;;4996055;28;20245;-70
2023/09/07 07:16:12;;;;;;;19.13;10.80;;;20.40;99.90;;;;;;5017068;28;20212;-66
2023/09/07 07:18:39;;;;;;;15.45;10.27;;;20.50;99.90;;;;;;4988958;28;20275;-67
2023/09/07 07:21:05;;;;;;;12.05;9.98;;;20.50;99.90;;;;;;4979436;28;20229;-67
2023/09/07 07:23:32;;;;;;;17.00;10.30;;;20.60;99.90;;;;;;4976447;28;20295;-68
2023/09/07 07:25:58;;;;;;;16.90;10.27;;;20.60;99.90;;;;;;4971242;28;20332;-66
2023/09/07 07:28:28;;;;;;;15.52;9.70;;;20.70;99.90;;;;;;4991937;28;20216;-70
2023/09/07 07:30:54;;;;;;;14.23;10.00;;;20.80;99.90;;;;;;4983875;28;20192;-72
2023/09/07 07:33:21;;;;;;;17.23;9.55;;;20.90;99.90;;;;;;4973371;28;20281;-66
2023/09/07 07:35:48;;;;;;;12.27;10.00;;;21.00;99.90;;;;;;5018759;28;20177;-66
2023/09/07 07:38:14;;;;;;;12.75;9.57;;;21.10;99.90;;;;;;5009559;28;20194;-69
2023/09/07 07:40:42;;;;;;;18.45;9.35;;;21.20;99.90;;;;;;4983825;28;20348;-68
2023/09/07 07:43:10;;;;;;;14.45;9.95;;;21.30;99.90;;;;;;4990822;28;20177;-66
2023/09/07 07:45:38;;;;;;;16.85;8.77;;;21.30;99.90;;;;;;5002418;28;20276;-67
2023/09/07 07:48:08;;;;;;;15.00;9.45;;;21.40;99.90;;;;;;5010048;28;20193;-68
2023/09/07 07:50:39;;;;;;;16.13;9.88;;;21.40;99.90;;;;;;4984461;28;20190;-67
2023/09/07 07:53:06;;;;;;;15.60;9.68;;;21.50;99.90;;;;;;4985430;28;20308;-66
2023/09/07 07:55:42;;;;;;;15.85;9.80;;;21.60;99.90;;;;;;4988777;28;20688;-68
2023/09/07 07:58:12;;;;;;;17.23;9.32;;;21.70;99.90;;;;;;4987228;28;20209;-66
2023/09/07 08:00:47;;;;;;;15.15;9.55;;;21.70;99.90;;;;;;5016247;28;20230;-67
2023/09/07 08:03:14;;;;;;;16.20;9.32;;;21.80;99.90;;;;;;4989705;28;20263;-67
2023/09/07 08:05:40;;;;;;;16.08;9.00;;;21.90;99.90;;;;;;5001200;28;20197;-66
2023/09/07 08:08:07;;;;;;;13.43;9.02;;;21.90;99.90;;;;;;5002411;28;20550;-66
2023/09/07 08:10:36;;;;;;;16.35;9.13;;;22.10;99.90;;;;;;4985451;28;20233;-68
2023/09/07 08:13:03;;;;;;;15.00;9.10;;;22.10;99.90;;;;;;5019350;28;20188;-65
2023/09/07 08:15:29;;;;;;;14.07;9.50;;;22.20;99.90;;;;;;5018409;28;20186;-65
2023/09/07 08:17:56;;;;;;;10.52;9.25;;;22.30;99.90;;;;;;4987837;28;20669;-66
2023/09/07 08:20:22;;;;;;;18.48;9.13;;;22.30;99.90;;;;;;4987713;28;20225;-71
2023/09/07 08:22:49;;;;;;;14.52;8.75;;;22.40;99.90;;;;;;4993415;28;20326;-67
2023/09/07 08:25:15;;;;;;;16.55;9.60;;;22.40;99.90;;;;;;5002713;28;20182;-67
2023/09/07 08:27:46;;;;;;;14.73;8.98;;;22.60;99.90;;;;;;4983695;28;20208;-66
2023/09/07 08:30:17;;;;;;;13.27;8.43;;;22.60;99.90;;;;;;4992603;28;20209;-67
2023/09/07 08:32:45;;;;;;;14.02;9.02;;;22.70;99.90;;;;;;4982289;28;20299;-65
2023/09/07 08:35:16;;;;;;;13.48;9.10;;;22.70;99.90;;;;;;4994330;28;20283;-67
2023/09/07 08:37:47;;;;;;;17.88;8.52;;;22.80;99.90;;;;;;4990328;28;20352;-65
2023/09/07 08:40:16;;;;;;;13.43;8.18;;;22.90;99.90;;;;;;4992303;28;20750;-66
2023/09/07 08:42:43;;;;;;;17.70;8.77;;;23.00;99.90;;;;;;4991989;28;20194;-67
2023/09/07 08:45:12;;;;;;;14.60;8.75;;;23.00;99.90;;;;;;4992109;28;20205;-67
2023/09/07 08:47:39;;;;;;;12.18;7.65;;;23.20;99.90;;;;;;4985944;28;20262;-67
2023/09/07 08:50:07;;;;;;;14.05;7.75;;;23.20;99.90;;;;;;4992146;28;20197;-67
2023/09/07 08:52:34;;;;;;;13.38;8.07;;;23.30;99.90;;;;;;4991935;28;20280;-67
2023/09/07 08:55:04;;;;;;;15.80;8.88;;;23.30;99.90;;;;;;4992697;28;20201;-66
2023/09/07 08:57:31;;;;;;;15.00;7.90;;;23.40;99.90;;;;;;4991783;28;20193;-67
2023/09/07 08:59:58;;;;;;;15.95;8.23;;;23.50;99.90;;;;;;4989630;28;20216;-65
2023/09/07 09:02:24;;;;;;;10.70;7.78;;;23.60;99.90;;;;;;5017846;28;20609;-66
2023/09/07 09:04:52;;;;;;;12.38;7.63;;;23.70;99.90;;;;;;4986783;28;20204;-69
2023/09/07 09:07:18;;;;;;;10.73;7.38;;;23.80;99.90;;;;;;4991188;28;20725;-65
2023/09/07 09:09:44;;;;;;;12.50;8.00;;;23.90;99.90;;;;;;4990607;28;20311;-71
2023/09/07 09:12:11;;;;;;;10.50;7.07;;;23.90;99.90;;;;;;4988193;28;20177;-71
2023/09/07 09:14:38;;;;;;;13.07;7.15;;;24.00;99.90;;;;;;4987621;28;20637;-68
2023/09/07 09:17:04;;;;;;;18.25;7.38;;;24.10;99.90;;;;;;4991472;28;20197;-65
2023/09/07 09:19:32;;;;;;;9.50;7.13;;;24.20;99.90;;;;;;5003282;28;20206;-70
2023/09/07 09:22:02;;;;;;;11.32;7.07;;;24.30;99.90;;;;;;5001891;28;20217;-69
2023/09/07 09:24:36;;;;;;;11.00;6.53;;;24.40;99.90;;;;;;5020614;28;20204;-66
2023/09/07 09:27:08;;;;;;;10.75;6.30;;;24.40;99.90;;;;;;4992216;28;20195;-65
2023/09/07 09:29:50;;;;;;;8.98;5.57;;;24.60;99.90;;;;;;4990129;28;20196;-65
2023/09/07 09:32:19;;;;;;;9.93;5.70;;;24.60;99.90;;;;;;4971211;28;20193;-64
2023/09/07 09:34:46;;;;;;;11.88;6.10;;;24.70;99.90;;;;;;4995676;28;20193;-66
2023/09/07 09:37:14;;;;;;;10.38;5.70;;;24.80;99.90;;;;;;4987771;28;20193;-66
2023/09/07 09:39:41;;;;;;;14.45;5.30;;;24.90;99.90;;;;;;4981634;28;20252;-73
2023/09/07 09:42:09;;;;;;;9.43;5.53;;;25.00;99.90;;;;;;4985543;28;20312;-69
2023/09/07 09:44:36;;;;;;;11.70;5.70;;;25.10;99.90;;;;;;4987819;28;20201;-65
2023/09/07 09:47:03;;;;;;;8.35;5.80;;;25.20;99.90;;;;;;5021296;28;20673;-65
2023/09/07 09:49:30;;;;;;;11.20;5.93;;;25.20;99.90;;;;;;4989888;28;20185;-66
2023/09/07 09:51:58;;;;;;;10.85;5.80;;;25.30;99.90;;;;;;4989399;28;20200;-68
2023/09/07 09:54:26;;;;;;;11.65;6.07;;;25.40;99.90;;;;;;4987771;28;20208;-65
2023/09/07 09:56:52;;;;;;;14.18;5.70;;;25.40;99.90;;;;;;4987692;28;20215;-65
2023/09/07 09:59:19;;;;;;;11.20;6.25;;;25.50;99.90;;;;;;4992354;28;20185;-65
2023/09/07 10:01:47;;;;;;;9.23;5.18;;;25.50;99.90;;;;;;4985494;28;20293;-68
2023/09/07 10:04:16;;;;;;;10.70;5.75;;;25.60;99.90;;;;;;4986104;28;20196;-65
2023/09/07 10:06:56;;;;;;;11.13;5.40;;;25.60;99.90;;;;;;4989313;28;20184;-65
2023/09/07 10:09:22;;;;;;;12.20;5.70;;;25.70;99.90;;;;;;4992349;28;20263;-66
2023/09/07 10:11:56;;;;;;;15.95;5.40;;;25.80;99.90;;;;;;4990488;28;20539;-66
2023/09/07 10:14:22;;;;;;;11.38;5.13;;;25.80;99.90;;;;;;4989265;28;20189;-66
2023/09/07 10:16:51;;;;;;;8.65;5.45;;;25.80;99.90;;;;;;4984891;28;20273;-66
2023/09/07 10:19:22;;;;;;;10.77;5.35;;;25.90;99.90;;;;;;4992184;28;20189;-68
2023/09/07 10:21:49;;;;;;;11.77;5.22;;;26.00;99.90;;;;;;5018901;28;20217;-66
2023/09/07 10:24:33;;;;;;;14.35;5.18;;;26.00;99.90;;;;;;4992110;28;20275;-66
2023/09/07 10:27:06;;;;;;;15.15;6.10;;;26.10;99.90;;;;;;4983578;28;20212;-67
2023/09/07 10:29:46;;;;;;;7.25;5.60;;;26.10;99.70;;;;;;5016001;28;20688;-66
2023/09/07 10:32:14;;;;;;;8.82;5.40;;;26.20;99.60;;;;;;4987666;28;20179;-68
2023/09/07 10:34:44;;;;;;;10.50;5.20;;;26.30;99.40;;;;;;4996087;28;20549;-66
2023/09/07 10:37:14;;;;;;;12.65;5.50;;;26.30;99.10;;;;;;4986104;28;20185;-65
2023/09/07 10:39:43;;;;;;;11.30;4.97;;;26.30;99.00;;;;;;4986724;28;20188;-67
2023/09/07 10:42:19;;;;;;;9.23;5.47;;;26.30;99.10;;;;;;5020540;28;20271;-67
2023/09/07 10:44:45;;;;;;;7.60;5.30;;;26.40;99.00;;;;;;4990417;28;20264;-66
2023/09/07 10:47:12;;;;;;;9.75;5.55;;;26.40;98.60;;;;;;4984666;28;20367;-69
2023/09/07 10:49:39;;;;;;;7.78;5.10;;;26.50;98.20;;;;;;4984922;28;20552;-66
2023/09/07 10:52:05;;;;;;;14.70;5.25;;;26.60;97.50;;;;;;4992340;28;20192;-68
2023/09/07 10:54:31;;;;;;;10.60;5.30;;;26.60;96.90;;;;;;4998845;28;20296;-68
2023/09/07 10:57:08;;;;;;;9.07;5.40;;;26.60;96.60;;;;;;4990317;28;20196;-64
2023/09/07 10:59:34;;;;;;;11.13;5.32;;;26.70;96.30;;;;;;4989755;28;20188;-66
2023/09/07 11:02:06;;;;;;;11.77;5.07;;;26.80;96.20;;;;;;5020284;28;20217;-66
2023/09/07 11:04:32;;;;;;;10.15;5.57;;;26.80;96.10;;;;;;4991490;28;20192;-66
2023/09/07 11:06:59;;;;;;;9.05;6.05;;;26.90;96.00;;;;;;4984240;28;20272;-68
2023/09/07 11:09:25;;;;;;;11.02;5.10;;;26.90;95.50;;;;;;4991397;28;20240;-66
2023/09/07 11:11:50;;;;;;;9.23;4.90;;;27.00;94.90;;;;;;4983624;28;20184;-67
2023/09/07 11:14:16;;;;;;;10.57;4.65;;;27.10;94.30;;;;;;4991779;28;20184;-65
2023/09/07 11:16:43;;;;;;;8.50;4.63;;;27.10;93.60;;;;;;4985056;28;20200;-66
2023/09/07 11:19:09;;;;;;;8.38;5.45;;;27.10;92.40;;;;;;4991575;28;20192;-65
2023/09/07 11:21:35;;;;;;;7.50;4.75;;;27.20;91.80;;;;;;4987456;28;20224;-66
2023/09/07 11:24:05;;;;;;;11.45;5.50;;;27.20;91.50;;;;;;4990270;28;20657;-70
2023/09/07 11:26:47;;;;;;;12.77;4.72;;;27.30;91.40;;;;;;4984915;28;20673;-66
2023/09/07 11:29:15;;;;;;;15.93;4.78;;;27.30;90.50;;;;;;4991451;28;20196;-71
2023/09/07 11:31:41;;;;;;;8.00;4.53;;;27.30;90.60;;;;;;4989582;28;20188;-64
2023/09/07 11:34:14;;;;;;;7.35;4.15;;;27.40;90.60;;;;;;4990450;28;20203;-66
2023/09/07 11:36:41;;;;;;;11.55;4.47;;;27.40;90.00;;;;;;4985744;28;20218;-65
2023/09/07 11:39:17;;;;;;;13.18;4.80;;;27.50;89.70;;;;;;5022918;28;20185;-65
2023/09/07 11:41:44;;;;;;;14.20;5.13;;;27.60;89.90;;;;;;4983850;28;20664;-66
2023/09/07 11:44:11;;;;;;;7.80;4.72;;;27.70;89.90;;;;;;4991531;28;20192;-65
2023/09/07 11:46:37;;;;;;;7.55;5.10;;;27.70;88.80;;;;;;4985746;28;20199;-67
2023/09/07 11:49:06;;;;;;;11.02;5.10;;;27.70;87.60;;;;;;4990913;28;20188;-66
2023/09/07 11:51:32;;;;;;;13.55;4.85;;;27.80;87.70;;;;;;4987419;28;20199;-66
2023/09/07 11:53:59;;;;;;;8.77;5.07;;;27.90;87.60;;;;;;4991040;28;20388;-66
2023/09/07 11:56:25;;;;;;;9.57;4.80;;;27.90;87.20;;;;;;4989144;28;20275;-66
2023/09/07 11:58:51;;;;;;;15.43;4.85;;;28.00;87.50;;;;;;4989495;28;20580;-65
2023/09/07 12:01:17;;;;;;;13.95;5.13;;;28.00;87.20;;;;;;4991909;28;20239;-66
2023/09/07 12:03:44;;;;;;;17.10;4.82;;;28.00;86.40;;;;;;4999041;28;20184;-68
2023/09/07 12:06:10;;;;;;;9.82;4.63;;;28.00;85.60;;;;;;4992672;28;20702;-66
2023/09/07 12:08:37;;;;;;;7.57;5.13;;;28.00;85.90;;;;;;4993046;28;21381;-66
2023/09/07 12:11:03;;;;;;;8.18;4.93;;;28.10;86.40;;;;;;4991774;28;20228;-67
2023/09/07 12:13:29;;;;;;;18.45;4.95;;;28.10;86.30;;;;;;4993471;28;20188;-67
2023/09/07 12:15:55;;;;;;;9.82;5.25;;;28.20;85.00;;;;;;4987506;28;20194;-67
2023/09/07 12:18:23;;;;;;;10.40;5.32;;;28.20;84.00;;;;;;4993941;28;20199;-66
2023/09/07 12:20:49;;;;;;;8.38;5.07;;;28.20;83.60;;;;;;4988077;28;20217;-66
2023/09/07 12:23:15;;;;;;;7.85;5.32;;;28.20;83.90;;;;;;4990293;28;20664;-66
2023/09/07 12:25:41;;;;;;;11.10;5.38;;;28.20;84.80;;;;;;4990514;28;20193;-66
2023/09/07 12:28:07;;;;;;;15.82;4.82;;;28.30;83.50;;;;;;5019353;28;20180;-68
2023/09/07 12:30:36;;;;;;;9.07;5.20;;;28.30;82.50;;;;;;5018845;28;20267;-66
2023/09/07 12:33:02;;;;;;;12.73;6.28;;;28.30;82.70;;;;;;4988399;28;20189;-67
2023/09/07 12:35:28;;;;;;;11.63;4.97;;;28.30;83.60;;;;;;4991977;28;20185;-67
2023/09/07 12:37:55;;;;;;;9.57;4.80;;;28.30;83.90;;;;;;4990645;28;20263;-65